Time;durP1;ratioP1;P1;durP2;ratioP2;P2;SDS_P1;SDS_P2;PMS_P1;PMS_P2;Temp;Humidity;BMP_temperature;BMP_pressure;BME280_temperature;BME280_humidity;BME280_pressure;Samples;Min_cycle;Max_cycle;Signal;HPM_P1;HPM_P2
2023/02/24 00:01:36;;;;;;;30.50;4.63;;;5.50;99.90;;;;;;5050623;28;20130;-55
2023/02/24 00:04:10;;;;;;;37.27;5.67;;;5.40;99.90;;;;;;5050596;28;20476;-54
2023/02/24 00:06:39;;;;;;;32.73;5.73;;;5.40;99.90;;;;;;5050522;28;20112;-55
2023/02/24 00:09:11;;;;;;;28.30;5.20;;;5.40;99.90;;;;;;5050616;28;20083;-54
2023/02/24 00:11:40;;;;;;;34.43;5.10;;;5.30;99.90;;;;;;5050605;28;20037;-55
2023/02/24 00:14:06;;;;;;;;;;;5.30;99.90;;;;;;5050920;28;20021;-54
2023/02/24 00:16:32;;;;;;;24.33;4.70;;;5.20;99.90;;;;;;5050508;28;19913;-55
2023/02/24 00:18:59;;;;;;;28.47;5.03;;;5.20;99.90;;;;;;5050516;28;20029;-54
2023/02/24 00:21:27;;;;;;;30.13;5.07;;;5.20;99.90;;;;;;5050346;28;20021;-56
2023/02/24 00:23:53;;;;;;;26.40;4.83;;;5.20;99.90;;;;;;5050277;28;20033;-54
2023/02/24 00:26:19;;;;;;;29.77;4.30;;;5.10;99.90;;;;;;5051470;28;20472;-55
2023/02/24 00:28:45;;;;;;;30.97;4.67;;;5.10;99.90;;;;;;5054545;28;20056;-52
2023/02/24 00:31:15;;;;;;;29.17;5.17;;;5.00;99.90;;;;;;5036499;28;20192;-55
2023/02/24 00:33:42;;;;;;;27.42;4.50;;;5.00;99.90;;;;;;5054378;28;20453;-55
2023/02/24 00:36:22;;;;;;;23.10;3.90;;;4.90;99.90;;;;;;5036467;28;20025;-55
2023/02/24 00:38:50;;;;;;;25.17;4.00;;;4.90;99.90;;;;;;5054289;28;20451;-56
2023/02/24 00:41:21;;;;;;;25.60;4.03;;;4.90;99.90;;;;;;5036172;28;20033;-54
2023/02/24 00:43:48;;;;;;;27.40;4.90;;;4.90;99.90;;;;;;5054157;28;20025;-54
2023/02/24 00:46:17;;;;;;;25.27;3.73;;;4.80;99.90;;;;;;5053538;28;20025;-54
2023/02/24 00:48:46;;;;;;;32.00;4.43;;;4.80;99.90;;;;;;5054127;28;20530;-52
2023/02/24 00:51:16;;;;;;;23.53;4.33;;;4.70;99.90;;;;;;5053920;28;20033;-53
2023/02/24 00:53:43;;;;;;;26.13;4.07;;;4.70;99.90;;;;;;5035907;28;20033;-54
2023/02/24 00:56:15;;;;;;;23.77;3.87;;;4.70;99.90;;;;;;5053950;28;20025;-55
2023/02/24 00:58:44;;;;;;;21.00;3.63;;;4.70;99.90;;;;;;5035801;28;20037;-51
2023/02/24 01:01:16;;;;;;;32.55;4.65;;;4.70;99.90;;;;;;5036019;28;20029;-55
2023/02/24 01:03:42;;;;;;;22.87;4.57;;;4.70;99.90;;;;;;5053721;28;20029;-55
2023/02/24 01:06:08;;;;;;;30.30;4.73;;;4.80;99.90;;;;;;5053673;28;20048;-53
2023/02/24 01:08:39;;;;;;;22.73;3.67;;;4.80;99.90;;;;;;5035575;28;20029;-52
2023/02/24 01:13:49;;;;;;;25.07;5.23;;;4.80;99.90;;;;;;5053594;28;20037;-54
2023/02/24 01:16:17;;;;;;;30.10;4.10;;;4.80;99.90;;;;;;5053648;28;20029;-55
2023/02/24 01:18:48;;;;;;;35.30;4.57;;;4.80;99.90;;;;;;5035457;28;20040;-55
2023/02/24 01:21:16;;;;;;;27.00;3.63;;;4.80;99.90;;;;;;5035482;28;20094;-54
2023/02/24 01:23:47;;;;;;;26.67;4.32;;;4.80;99.90;;;;;;5035398;28;20036;-54
2023/02/24 01:26:13;;;;;;;;;;;4.70;99.90;;;;;;5054051;28;20032;-55
2023/02/24 01:28:39;;;;;;;23.07;4.20;;;4.70;99.90;;;;;;5035306;28;19954;-55
2023/02/24 01:31:05;;;;;;;36.63;6.03;;;4.70;99.90;;;;;;5035262;28;20056;-56
2023/02/24 01:33:32;;;;;;;26.63;4.80;;;4.60;99.90;;;;;;5053150;28;20071;-55
2023/02/24 01:36:12;;;;;;;30.42;5.03;;;4.60;99.90;;;;;;5035506;28;20158;-54
2023/02/24 01:38:39;;;;;;;38.13;5.07;;;4.60;99.90;;;;;;5034133;28;20120;-53
2023/02/24 01:41:06;;;;;;;32.50;5.70;;;4.60;99.90;;;;;;5053151;28;20021;-53
2023/02/24 01:43:32;;;;;;;32.40;5.43;;;4.50;99.90;;;;;;5052880;28;20493;-56
2023/02/24 01:45:58;;;;;;;27.87;6.33;;;4.50;99.90;;;;;;5035277;28;20075;-55
2023/02/24 01:48:26;;;;;;;36.77;6.03;;;4.60;99.90;;;;;;5052964;28;20029;-56
2023/02/24 01:50:52;;;;;;;37.30;6.93;;;4.50;99.90;;;;;;5035004;28;20060;-55
2023/02/24 01:53:18;;;;;;;39.37;6.77;;;4.50;99.90;;;;;;5052669;28;20025;-55
2023/02/24 01:55:50;;;;;;;30.10;7.67;;;4.60;99.90;;;;;;5052898;28;20033;-52
2023/02/24 01:58:27;;;;;;;40.43;7.93;;;4.60;99.90;;;;;;5034662;28;20083;-54
2023/02/24 02:00:54;;;;;;;32.97;6.70;;;4.60;99.90;;;;;;5052756;28;20021;-53
2023/02/24 02:03:30;;;;;;;37.40;6.80;;;4.60;99.90;;;;;;5052589;28;20048;-56
2023/02/24 02:06:10;;;;;;;33.67;6.43;;;4.70;99.90;;;;;;5052802;28;20040;-54
2023/02/24 02:08:39;;;;;;;29.37;6.13;;;4.60;99.90;;;;;;5052305;28;20485;-53
2023/02/24 02:11:13;;;;;;;;;;;4.60;99.90;;;;;;5035253;28;20086;-55
2023/02/24 02:13:42;;;;;;;30.40;5.43;;;4.70;99.90;;;;;;5034404;28;19912;-54
2023/02/24 02:16:29;;;;;;;35.87;5.47;;;4.60;99.90;;;;;;5034738;28;20069;-55
2023/02/24 02:18:59;;;;;;;28.07;5.73;;;4.60;99.90;;;;;;5052387;28;20107;-55
2023/02/24 02:21:35;;;;;;;32.13;5.47;;;4.60;99.90;;;;;;5034551;28;20029;-54
2023/02/24 02:24:03;;;;;;;38.60;5.80;;;4.60;99.90;;;;;;5052248;28;20021;-53
2023/02/24 02:26:59;;;;;;;25.63;4.90;;;4.60;99.90;;;;;;5034366;28;20461;-54
2023/02/24 02:29:28;;;;;;;30.10;5.17;;;4.60;99.90;;;;;;5052202;28;20032;-53
2023/02/24 02:32:14;;;;;;;26.20;3.45;;;4.50;99.90;;;;;;5052197;28;20036;-52
2023/02/24 02:34:52;;;;;;;19.00;3.67;;;4.60;99.90;;;;;;5051466;28;20083;-54
2023/02/24 02:37:36;;;;;;;21.57;3.43;;;4.50;99.90;;;;;;5051883;28;20020;-53
2023/02/24 02:40:20;;;;;;;24.87;4.03;;;4.50;99.90;;;;;;5051978;28;20033;-54
2023/02/24 02:43:01;;;;;;;20.30;3.07;;;4.40;99.90;;;;;;5034092;28;20094;-53
2023/02/24 02:45:54;;;;;;;25.77;3.57;;;4.40;99.90;;;;;;5051906;28;20493;-54
2023/02/24 02:48:37;;;;;;;15.50;3.00;;;4.40;99.90;;;;;;5047606;28;20047;-53
2023/02/24 02:51:10;;;;;;;14.27;3.20;;;4.30;99.90;;;;;;5033806;28;20464;-53
2023/02/24 02:53:46;;;;;;;22.00;3.97;;;4.30;99.90;;;;;;5033943;28;20481;-54
2023/02/24 02:56:20;;;;;;;22.90;3.67;;;4.40;99.90;;;;;;5051823;28;20390;-54
2023/02/24 02:58:52;;;;;;;17.23;2.87;;;4.40;99.90;;;;;;5051548;28;20478;-54
2023/02/24 03:01:20;;;;;;;21.00;3.50;;;4.30;99.90;;;;;;5051692;28;20021;-55
2023/02/24 03:03:53;;;;;;;23.33;4.40;;;4.20;99.90;;;;;;5033508;28;20029;-54
2023/02/24 03:06:32;;;;;;;16.63;2.67;;;4.10;99.90;;;;;;5033519;28;20124;-54
2023/02/24 03:09:17;;;;;;;24.35;3.25;;;4.20;99.90;;;;;;5033490;28;20521;-53
2023/02/24 03:11:58;;;;;;;16.57;3.07;;;4.20;99.90;;;;;;5051395;28;20108;-54
2023/02/24 03:14:32;;;;;;;16.87;3.10;;;4.20;99.90;;;;;;5033637;28;20103;-55
2023/02/24 03:16:58;;;;;;;17.80;3.27;;;4.30;99.90;;;;;;5051254;28;20120;-52
2023/02/24 03:19:36;;;;;;;18.90;3.47;;;4.30;99.90;;;;;;5051116;28;20025;-53
2023/02/24 03:22:20;;;;;;;20.47;3.87;;;4.30;99.90;;;;;;5033326;28;20534;-55
2023/02/24 03:24:46;;;;;;;29.77;5.03;;;4.20;99.90;;;;;;5033188;28;20025;-53
2023/02/24 03:27:34;;;;;;;20.30;4.37;;;4.20;99.90;;;;;;5033108;28;20489;-51
2023/02/24 03:30:06;;;;;;;;;;;4.10;99.90;;;;;;5033689;28;20048;-55
2023/02/24 03:32:58;;;;;;;21.77;3.37;;;4.10;99.90;;;;;;5033027;28;19963;-54
2023/02/24 03:35:38;;;;;;;29.93;3.63;;;4.10;99.90;;;;;;5032944;28;20029;-55
2023/02/24 03:38:05;;;;;;;19.63;3.20;;;4.10;99.90;;;;;;5032843;28;20025;-54
2023/02/24 03:40:33;;;;;;;24.87;3.53;;;4.10;99.90;;;;;;5050890;28;20255;-54
2023/02/24 03:43:05;;;;;;;30.00;3.93;;;4.10;99.90;;;;;;5032960;28;20029;-55
2023/02/24 03:45:35;;;;;;;20.73;3.13;;;4.00;99.90;;;;;;5032757;28;20025;-53
2023/02/24 03:48:02;;;;;;;23.40;3.73;;;4.10;99.90;;;;;;5032677;28;20025;-54
2023/02/24 03:50:31;;;;;;;17.53;4.10;;;4.00;99.90;;;;;;5032730;28;20429;-56
2023/02/24 03:53:21;;;;;;;22.20;3.53;;;4.00;99.90;;;;;;5032577;28;20025;-56
2023/02/24 03:56:29;;;;;;;29.33;3.67;;;4.10;99.90;;;;;;5032858;28;20025;-55
2023/02/24 03:59:14;;;;;;;21.50;3.60;;;4.00;99.90;;;;;;4996371;28;20106;-55
2023/02/24 04:01:40;;;;;;;21.13;3.43;;;4.00;99.90;;;;;;5032215;28;20040;-57
2023/02/24 04:04:09;;;;;;;26.77;4.40;;;4.00;99.90;;;;;;5032506;28;20486;-54
2023/02/24 04:06:46;;;;;;;23.07;4.13;;;4.00;99.90;;;;;;5032526;28;20032;-56
2023/02/24 04:09:42;;;;;;;27.97;3.90;;;4.00;99.90;;;;;;5032548;28;20116;-55
2023/02/24 04:12:30;;;;;;;28.50;3.97;;;4.10;99.90;;;;;;5032547;28;20029;-55
2023/02/24 04:15:10;;;;;;;22.17;3.80;;;4.10;99.90;;;;;;5032250;28;20098;-54
2023/02/24 04:17:47;;;;;;;20.70;3.97;;;4.10;99.90;;;;;;5050268;28;20017;-53
2023/02/24 04:20:19;;;;;;;31.40;4.63;;;4.10;99.90;;;;;;5030377;28;20052;-55
2023/02/24 04:22:58;;;;;;;25.97;4.70;;;4.20;99.90;;;;;;5026927;28;20033;-55
2023/02/24 04:25:26;;;;;;;24.47;4.13;;;4.20;99.90;;;;;;5025832;28;20483;-53
2023/02/24 04:27:57;;;;;;;19.27;3.83;;;4.10;99.90;;;;;;5044904;28;20021;-53
2023/02/24 04:30:26;;;;;;;25.17;4.30;;;4.10;99.90;;;;;;5030474;28;20112;-55
2023/02/24 04:32:55;;;;;;;26.15;4.32;;;4.10;99.90;;;;;;5030047;28;20036;-53
2023/02/24 04:35:27;;;;;;;24.77;4.27;;;4.10;99.90;;;;;;5031064;28;20029;-54
2023/02/24 04:37:55;;;;;;;18.13;3.97;;;4.10;99.90;;;;;;5048224;28;20021;-55
2023/02/24 04:40:22;;;;;;;28.93;4.13;;;4.10;99.90;;;;;;5030795;28;20450;-53
2023/02/24 04:42:52;;;;;;;17.50;3.60;;;4.10;99.90;;;;;;5047705;28;20047;-55
2023/02/24 04:45:24;;;;;;;23.47;3.90;;;4.10;99.90;;;;;;5048359;28;20457;-54
2023/02/24 04:47:54;;;;;;;28.07;4.30;;;4.10;99.90;;;;;;5048119;28;20132;-54
2023/02/24 04:50:24;;;;;;;22.10;4.30;;;4.10;99.90;;;;;;5048718;28;20342;-52
2023/02/24 04:52:54;;;;;;;22.23;4.18;;;4.10;99.90;;;;;;5047900;28;20493;-54
2023/02/24 04:55:23;;;;;;;18.33;3.97;;;4.10;99.90;;;;;;5048189;28;20103;-55
2023/02/24 04:57:52;;;;;;;19.52;3.80;;;4.10;99.90;;;;;;5047586;28;20033;-55
2023/02/24 05:00:22;;;;;;;23.63;4.38;;;4.10;99.90;;;;;;5048047;28;20358;-55
2023/02/24 05:02:53;;;;;;;20.70;4.65;;;4.10;99.90;;;;;;5048237;28;20051;-55
2023/02/24 05:05:32;;;;;;;18.03;4.00;;;4.10;99.90;;;;;;5048229;28;20094;-54
2023/02/24 05:08:05;;;;;;;25.42;4.38;;;4.10;99.90;;;;;;5047876;28;20044;-54
2023/02/24 05:10:44;;;;;;;18.23;3.90;;;4.10;99.90;;;;;;5047533;28;20032;-54
2023/02/24 05:13:12;;;;;;;;;;;4.00;99.90;;;;;;5049598;28;20033;-53
2023/02/24 05:15:40;;;;;;;19.57;3.53;;;4.00;99.90;;;;;;5051560;28;19945;-54
2023/02/24 05:18:07;;;;;;;19.97;3.87;;;4.00;99.90;;;;;;5051976;28;20032;-56
2023/02/24 05:23:44;;;;;;;25.17;4.20;;;4.00;99.90;;;;;;5051858;28;20140;-54
2023/02/24 05:26:14;;;;;;;25.77;4.43;;;4.00;99.90;;;;;;5051105;28;20036;-54
2023/02/24 05:28:41;;;;;;;17.70;3.57;;;4.00;99.90;;;;;;5051661;28;20147;-54
2023/02/24 05:31:13;;;;;;;21.60;5.40;;;4.10;99.90;;;;;;5051514;28;20039;-54
2023/02/24 05:33:41;;;;;;;25.33;5.53;;;4.00;99.90;;;;;;5051557;28;20499;-53
2023/02/24 05:36:19;;;;;;;33.80;7.27;;;4.00;99.90;;;;;;5051283;28;20110;-56
2023/02/24 05:38:46;;;;;;;29.80;7.20;;;3.90;99.90;;;;;;5051755;28;20093;-54
2023/02/24 05:41:18;;;;;;;27.83;5.60;;;4.00;99.90;;;;;;5050777;28;20028;-53
2023/02/24 05:43:51;;;;;;;25.07;5.40;;;4.00;99.90;;;;;;5033573;28;20160;-54
2023/02/24 05:46:38;;;;;;;22.60;5.53;;;4.00;99.90;;;;;;5051409;28;20055;-52
2023/02/24 05:49:10;;;;;;;30.50;5.27;;;3.90;99.90;;;;;;5051697;28;20491;-53
2023/02/24 05:51:37;;;;;;;27.23;5.63;;;4.00;99.90;;;;;;5050739;28;20031;-54
2023/02/24 05:54:09;;;;;;;20.23;5.10;;;4.00;99.90;;;;;;5051557;28;20035;-55
2023/02/24 05:56:38;;;;;;;30.53;5.60;;;3.90;99.90;;;;;;5050773;28;20044;-52
2023/02/24 05:59:07;;;;;;;21.83;6.67;;;3.90;99.90;;;;;;5051837;28;20029;-54
2023/02/24 06:01:44;;;;;;;19.63;4.60;;;3.90;99.90;;;;;;5051218;28;20033;-55
2023/02/24 06:04:19;;;;;;;27.33;4.17;;;3.90;99.90;;;;;;5051204;28;20037;-54
2023/02/24 06:06:51;;;;;;;19.87;4.03;;;4.00;99.90;;;;;;5050624;28;20036;-54
2023/02/24 06:09:18;;;;;;;23.80;4.30;;;4.00;99.90;;;;;;5051338;28;20063;-56
2023/02/24 06:11:44;;;;;;;27.17;5.87;;;4.00;99.90;;;;;;5050355;28;20033;-55
2023/02/24 06:14:11;;;;;;;17.43;4.17;;;4.00;99.90;;;;;;5051107;28;20029;-53
2023/02/24 06:16:39;;;;;;;22.80;4.43;;;4.00;99.90;;;;;;5050501;28;20067;-54
2023/02/24 06:19:06;;;;;;;24.20;4.63;;;4.00;99.90;;;;;;5051048;28;20033;-54
2023/02/24 06:21:34;;;;;;;27.17;5.03;;;4.00;99.90;;;;;;5050564;28;20124;-53
2023/02/24 06:24:00;;;;;;;23.07;5.00;;;4.00;99.90;;;;;;5050645;28;20041;-52
2023/02/24 06:26:32;;;;;;;19.00;4.20;;;4.10;99.90;;;;;;5049865;28;20027;-52
2023/02/24 06:28:58;;;;;;;18.83;4.43;;;4.10;99.90;;;;;;5050858;28;20427;-53
2023/02/24 06:31:25;;;;;;;18.70;4.80;;;4.10;99.90;;;;;;5050538;28;20061;-54
2023/02/24 06:33:54;;;;;;;25.20;4.77;;;4.00;99.90;;;;;;5050763;28;20036;-51
2023/02/24 06:36:21;;;;;;;16.23;3.88;;;4.10;99.90;;;;;;5050049;28;20029;-54
2023/02/24 06:38:48;;;;;;;19.30;4.00;;;4.00;99.90;;;;;;5050849;28;20067;-55
2023/02/24 06:41:14;;;;;;;17.90;3.93;;;4.00;99.90;;;;;;5049908;28;20029;-52
2023/02/24 06:43:42;;;;;;;17.80;4.00;;;4.00;99.90;;;;;;5050453;28;20036;-55
2023/02/24 06:46:10;;;;;;;18.37;4.07;;;4.00;99.90;;;;;;5050509;28;20033;-55
2023/02/24 06:48:36;;;;;;;21.77;3.93;;;4.00;99.90;;;;;;5050609;28;20397;-55
2023/02/24 06:51:06;;;;;;;16.87;3.83;;;4.00;99.90;;;;;;5050037;28;20041;-54
2023/02/24 06:53:34;;;;;;;15.37;3.60;;;4.00;99.90;;;;;;5050597;28;20454;-54
2023/02/24 06:56:06;;;;;;;18.27;3.13;;;4.00;99.90;;;;;;5049226;28;20167;-52
2023/02/24 06:58:32;;;;;;;19.57;3.73;;;4.00;99.90;;;;;;5047554;28;20500;-56
2023/02/24 07:00:57;;;;;;;20.30;3.60;;;4.00;99.90;;;;;;5050039;28;20047;-54
2023/02/24 07:03:38;;;;;;;16.80;3.37;;;4.00;99.90;;;;;;5050394;28;20555;-56
2023/02/24 07:06:21;;;;;;;20.77;3.30;;;4.10;99.90;;;;;;5049763;28;20032;-55
2023/02/24 07:08:47;;;;;;;17.17;3.30;;;4.10;99.90;;;;;;5050251;28;20466;-53
2023/02/24 07:11:16;;;;;;;18.30;2.67;;;4.10;99.90;;;;;;5049580;28;20032;-56
2023/02/24 07:13:42;;;;;;;13.70;2.42;;;4.00;99.90;;;;;;5050192;28;20048;-53
2023/02/24 07:16:10;;;;;;;12.20;2.90;;;4.10;99.90;;;;;;5050013;28;20081;-54
2023/02/24 07:18:40;;;;;;;18.00;2.83;;;4.10;99.90;;;;;;5049902;28;20136;-51
2023/02/24 07:21:15;;;;;;;12.00;2.67;;;4.10;99.90;;;;;;5048770;28;20043;-53
2023/02/24 07:23:42;;;;;;;15.80;2.60;;;4.20;99.90;;;;;;5046782;28;20481;-53
2023/02/24 07:26:10;;;;;;;13.73;2.93;;;4.30;99.90;;;;;;5048204;28;20545;-51
2023/02/24 07:28:40;;;;;;;15.20;2.20;;;4.20;99.90;;;;;;5049014;28;20036;-52
2023/02/24 07:31:09;;;;;;;13.23;2.43;;;4.30;99.90;;;;;;5049378;28;20658;-54
2023/02/24 07:33:38;;;;;;;12.13;2.17;;;4.30;99.90;;;;;;5049732;28;20366;-53
2023/02/24 07:36:09;;;;;;;17.00;2.33;;;4.40;99.90;;;;;;5048596;28;20021;-52
2023/02/24 07:38:36;;;;;;;14.70;2.33;;;4.40;99.90;;;;;;5049700;28;20156;-51
2023/02/24 07:41:09;;;;;;;14.07;2.37;;;4.40;99.90;;;;;;5048593;28;20083;-53
2023/02/24 07:43:36;;;;;;;12.30;2.40;;;4.40;99.90;;;;;;5049628;28;20039;-54
2023/02/24 07:46:10;;;;;;;12.77;3.13;;;4.40;99.90;;;;;;5049087;28;20064;-53
2023/02/24 07:48:38;;;;;;;13.23;2.77;;;4.50;99.90;;;;;;5049377;28;20115;-56
2023/02/24 07:51:08;;;;;;;23.07;3.27;;;4.60;99.90;;;;;;5048429;28;20059;-51
2023/02/24 07:53:34;;;;;;;12.53;2.60;;;4.60;99.90;;;;;;5049466;28;20035;-52
2023/02/24 07:56:09;;;;;;;14.90;2.70;;;4.60;99.90;;;;;;5048296;28;20037;-49
2023/02/24 07:58:35;;;;;;;12.97;2.40;;;4.60;99.90;;;;;;5049146;28;20029;-53
2023/02/24 08:01:07;;;;;;;12.77;2.47;;;4.60;99.90;;;;;;5049035;28;20089;-51
2023/02/24 08:03:40;;;;;;;12.10;2.23;;;4.60;99.90;;;;;;5049341;28;20063;-51
2023/02/24 08:06:14;;;;;;;16.37;3.30;;;4.60;99.90;;;;;;5046366;28;20037;-49
2023/02/24 08:08:56;;;;;;;12.43;2.07;;;4.60;99.90;;;;;;5048445;28;20036;-51
2023/02/24 08:11:37;;;;;;;16.13;2.40;;;4.70;99.90;;;;;;5047820;28;20021;-53
2023/02/24 08:14:09;;;;;;;12.43;2.27;;;4.70;99.90;;;;;;5030374;28;20029;-51
2023/02/24 08:16:38;;;;;;;17.00;2.63;;;4.70;99.90;;;;;;5048568;28;20039;-52
2023/02/24 08:19:19;;;;;;;13.55;2.40;;;4.80;99.90;;;;;;5048769;28;20029;-51
2023/02/24 08:21:50;;;;;;;12.53;2.70;;;4.80;99.90;;;;;;5047871;28;20546;-51
2023/02/24 08:24:22;;;;;;;14.93;2.80;;;4.80;99.90;;;;;;5048796;28;20023;-50
2023/02/24 08:27:03;;;;;;;14.30;2.70;;;4.80;99.90;;;;;;5047646;28;20485;-52
2023/02/24 08:29:56;;;;;;;14.23;2.70;;;4.80;99.90;;;;;;5049517;28;20029;-53
2023/02/24 08:32:23;;;;;;;17.97;3.00;;;4.90;99.90;;;;;;5048597;28;20060;-52
2023/02/24 08:34:49;;;;;;;18.30;2.93;;;4.80;99.90;;;;;;5048870;28;20049;-51
2023/02/24 08:37:16;;;;;;;15.30;3.17;;;4.90;99.90;;;;;;5047921;28;20377;-51
2023/02/24 08:39:43;;;;;;;16.57;3.60;;;4.90;99.90;;;;;;5048903;28;20585;-50
2023/02/24 08:42:13;;;;;;;18.57;5.10;;;4.90;99.90;;;;;;5047749;28;20033;-52
2023/02/24 08:44:39;;;;;;;24.63;3.97;;;4.90;99.90;;;;;;5048721;28;20068;-50
2023/02/24 08:47:06;;;;;;;18.00;3.83;;;5.00;99.90;;;;;;5047031;28;20040;-50
2023/02/24 08:49:32;;;;;;;19.53;3.47;;;5.00;99.90;;;;;;5052264;28;20070;-52
2023/02/24 08:52:01;;;;;;;16.03;4.10;;;5.00;99.90;;;;;;5051413;28;20056;-50
2023/02/24 08:54:30;;;;;;;22.03;4.10;;;5.00;99.90;;;;;;5052206;28;20044;-50
2023/02/24 08:57:06;;;;;;;16.23;3.83;;;5.00;99.90;;;;;;5050527;28;20089;-48
2023/02/24 08:59:39;;;;;;;15.83;3.70;;;5.10;99.90;;;;;;5052423;28;20582;-50
2023/02/24 09:02:23;;;;;;;17.90;3.80;;;5.10;99.90;;;;;;5051964;28;20513;-50
2023/02/24 09:04:57;;;;;;;26.77;6.63;;;5.30;99.90;;;;;;5051931;28;20478;-52
2023/02/24 09:07:27;;;;;;;19.07;4.40;;;5.30;99.90;;;;;;5051030;28;20488;-50
2023/02/24 09:09:57;;;;;;;17.73;4.03;;;5.30;99.90;;;;;;5051643;28;20036;-49
2023/02/24 09:12:27;;;;;;;21.97;5.23;;;5.20;99.90;;;;;;5032840;28;20473;-51
2023/02/24 09:15:03;;;;;;;18.53;3.83;;;5.30;99.90;;;;;;5051773;28;20029;-50
2023/02/24 09:17:48;;;;;;;17.13;3.67;;;5.30;99.90;;;;;;5050798;28;20430;-51
2023/02/24 09:23:07;;;;;;;17.10;4.07;;;5.40;99.90;;;;;;5051759;28;20039;-47
2023/02/24 09:25:42;;;;;;;15.33;3.43;;;5.40;99.90;;;;;;5050385;28;20033;-53
2023/02/24 09:28:17;;;;;;;19.93;5.40;;;5.50;99.90;;;;;;5050912;28;20342;-50
2023/02/24 09:30:54;;;;;;;15.20;4.00;;;5.40;99.90;;;;;;5051308;28;20397;-56
2023/02/24 09:33:37;;;;;;;17.17;3.27;;;5.50;99.90;;;;;;5051360;28;20028;-63
2023/02/24 09:36:28;;;;;;;18.73;3.70;;;5.50;99.90;;;;;;5050693;28;20033;-54
2023/02/24 09:41:55;;;;;;;17.57;2.97;;;5.70;99.90;;;;;;5050580;28;20071;-57
2023/02/24 09:44:44;;;;;;;11.80;3.20;;;5.70;99.90;;;;;;5051338;28;20033;-53
2023/02/24 09:47:38;;;;;;;12.63;2.95;;;5.60;99.90;;;;;;5050209;28;20025;-57
2023/02/24 09:50:36;;;;;;;12.83;2.80;;;5.60;99.90;;;;;;5050608;28;20106;-53
2023/02/24 09:53:13;;;;;;;18.13;2.65;;;5.70;99.90;;;;;;5051014;28;20032;-55
2023/02/24 09:56:05;;;;;;;17.57;3.47;;;5.60;99.90;;;;;;5044845;28;20110;-52
2023/02/24 09:58:39;;;;;;;20.17;2.77;;;5.60;99.90;;;;;;5046789;28;20052;-55
2023/02/24 10:01:22;;;;;;;14.57;3.00;;;5.50;99.90;;;;;;5047596;28;20377;-55
2023/02/24 10:04:04;;;;;;;12.43;3.00;;;5.50;99.90;;;;;;5047886;28;20862;-57
2023/02/24 10:06:43;;;;;;;13.13;2.33;;;5.40;99.90;;;;;;5049054;28;20094;-57
2023/02/24 10:09:23;;;;;;;15.63;4.57;;;5.40;99.90;;;;;;5051117;28;20569;-57
2023/02/24 10:12:05;;;;;;;14.63;2.93;;;5.40;99.90;;;;;;5049975;28;20025;-56
2023/02/24 10:14:47;;;;;;;14.17;2.70;;;5.40;99.90;;;;;;5050881;28;20044;-54
2023/02/24 10:17:23;;;;;;;20.00;3.20;;;5.40;99.90;;;;;;5050654;28;20028;-55
2023/02/24 10:23:31;;;;;;;18.00;2.80;;;5.30;99.90;;;;;;5031160;28;20049;-57
2023/02/24 10:26:30;;;;;;;15.83;2.80;;;5.30;99.90;;;;;;5050119;28;20059;-57
2023/02/24 10:29:07;;;;;;;18.52;2.67;;;5.30;99.90;;;;;;5051588;28;20036;-55
2023/02/24 10:31:56;;;;;;;11.57;2.67;;;5.20;99.90;;;;;;5051363;28;20385;-57
2023/02/24 10:34:36;;;;;;;17.30;2.60;;;5.20;99.90;;;;;;5050244;28;20033;-57
2023/02/24 10:37:18;;;;;;;17.10;2.73;;;5.20;99.90;;;;;;5051542;28;20516;-56
2023/02/24 10:39:51;;;;;;;11.77;2.37;;;5.30;99.90;;;;;;5051153;28;20059;-57
2023/02/24 10:42:31;;;;;;;13.33;2.47;;;5.30;99.90;;;;;;5051717;28;20045;-56
2023/02/24 10:45:30;;;;;;;14.30;2.27;;;5.30;99.90;;;;;;5051778;28;20029;-55
2023/02/24 10:47:59;;;;;;;13.23;3.42;;;5.30;99.90;;;;;;5036495;28;20045;-56
2023/02/24 10:50:33;;;;;;;17.38;3.10;;;5.30;99.90;;;;;;5051799;28;20044;-55
2023/02/24 10:58:27;;;;;;;12.97;3.17;;;5.30;99.90;;;;;;5051407;28;20033;-58
2023/02/24 11:03:37;;;;;;;13.60;3.40;;;5.10;99.90;;;;;;5051344;28;20061;-56
2023/02/24 11:11:28;;;;;;;14.93;2.87;;;5.00;99.90;;;;;;5050312;28;20493;-57
2023/02/24 11:19:40;;;;;;;17.83;3.87;;;4.70;99.90;;;;;;5051192;28;20041;-57
2023/02/24 11:22:09;;;;;;;11.33;3.00;;;4.60;99.90;;;;;;5051184;28;20043;-56
2023/02/24 11:24:37;;;;;;;15.20;4.07;;;4.60;99.90;;;;;;5050854;28;20032;-57
2023/02/24 11:27:03;;;;;;;15.17;3.33;;;4.50;99.90;;;;;;5050850;28;20041;-56
2023/02/24 11:29:45;;;;;;;12.30;3.37;;;4.50;99.90;;;;;;5051154;28;20533;-56
2023/02/24 11:32:44;;;;;;;26.77;3.70;;;4.60;99.90;;;;;;5050928;28;20040;-55
2023/02/24 11:35:32;;;;;;;16.40;3.67;;;4.50;99.90;;;;;;5017346;28;20045;-57
2023/02/24 11:38:29;;;;;;;20.87;4.23;;;4.60;99.90;;;;;;5050945;28;20029;-57
2023/02/24 11:41:06;;;;;;;18.70;4.73;;;4.60;99.90;;;;;;5050877;28;20025;-56
2023/02/24 11:43:35;;;;;;;16.03;4.53;;;4.60;99.90;;;;;;5050747;28;20033;-57
2023/02/24 11:46:04;;;;;;;;;;;4.50;99.90;;;;;;5033446;28;20099;-57
2023/02/24 11:48:36;;;;;;;13.18;4.05;;;4.60;99.90;;;;;;5050785;28;19920;-57
2023/02/24 11:51:06;;;;;;;14.90;4.00;;;4.50;99.90;;;;;;5050685;28;20043;-58
2023/02/24 11:53:50;;;;;;;16.77;4.35;;;4.50;99.90;;;;;;5032749;28;20126;-57
2023/02/24 11:56:38;;;;;;;15.17;4.13;;;4.50;99.90;;;;;;5051154;28;20378;-56
2023/02/24 11:59:11;;;;;;;14.90;3.73;;;4.60;99.90;;;;;;5050676;28;20036;-55
2023/02/24 12:01:45;;;;;;;16.73;4.10;;;4.60;99.90;;;;;;5050646;28;20021;-54
2023/02/24 12:04:45;;;;;;;16.77;5.40;;;4.50;99.90;;;;;;5050458;28;20033;-56
2023/02/24 12:07:47;;;;;;;17.70;4.70;;;4.60;99.90;;;;;;5050343;28;20112;-57
2023/02/24 12:10:13;;;;;;;21.53;4.70;;;4.60;99.90;;;;;;5050331;28;20500;-55
2023/02/24 12:12:48;;;;;;;16.17;3.97;;;4.50;99.90;;;;;;5050386;28;20033;-56
2023/02/24 12:15:26;;;;;;;18.60;4.03;;;4.50;99.90;;;;;;5050186;28;20029;-58
2023/02/24 12:17:57;;;;;;;12.60;3.75;;;4.50;99.90;;;;;;5050429;28;20033;-57
2023/02/24 12:20:29;;;;;;;15.57;3.90;;;4.40;99.90;;;;;;5032278;28;20029;-54
2023/02/24 12:22:57;;;;;;;21.23;3.80;;;4.50;99.90;;;;;;5049944;28;20082;-55
2023/02/24 12:25:31;;;;;;;15.40;3.53;;;4.50;99.90;;;;;;5050005;28;20570;-55
2023/02/24 12:28:02;;;;;;;16.83;3.77;;;4.50;99.90;;;;;;5050161;28;20108;-56
2023/02/24 12:30:56;;;;;;;15.37;3.87;;;4.60;99.90;;;;;;5050288;28;20037;-56
2023/02/24 12:34:00;;;;;;;16.87;4.50;;;4.60;99.90;;;;;;5049951;28;20500;-56
2023/02/24 12:36:52;;;;;;;13.73;3.60;;;4.50;99.90;;;;;;5050086;28;20036;-56
2023/02/24 12:39:57;;;;;;;14.37;3.37;;;4.50;99.90;;;;;;5050235;28;20052;-55
2023/02/24 12:42:49;;;;;;;15.40;4.10;;;4.50;99.90;;;;;;5032504;28;20476;-55
2023/02/24 12:45:29;;;;;;;17.90;4.43;;;4.50;99.90;;;;;;5050015;28;20037;-55
2023/02/24 12:48:19;;;;;;;21.57;4.80;;;4.50;99.90;;;;;;5049872;28;20090;-56
2023/02/24 12:51:06;;;;;;;18.77;5.13;;;4.50;99.90;;;;;;5050088;28;20475;-55
2023/02/24 12:54:02;;;;;;;19.90;4.83;;;4.50;99.90;;;;;;5049805;28;20040;-54
2023/02/24 12:56:52;;;;;;;15.17;5.07;;;4.50;99.90;;;;;;5049922;28;20147;-56
2023/02/24 12:59:19;;;;;;;;;;;4.50;99.90;;;;;;5050653;28;20505;-54
2023/02/24 13:01:56;;;;;;;17.50;5.20;;;4.50;99.90;;;;;;5050146;28;20054;-54
2023/02/24 13:04:40;;;;;;;15.63;5.63;;;4.50;99.90;;;;;;5049752;28;20486;-58
2023/02/24 13:07:22;;;;;;;21.67;5.80;;;4.50;99.90;;;;;;5049656;28;20037;-56
2023/02/24 13:10:19;;;;;;;16.33;5.60;;;4.50;99.90;;;;;;5049964;28;20033;-56
2023/02/24 13:13:08;;;;;;;20.77;6.37;;;4.60;99.90;;;;;;5049886;28;20039;-55
2023/02/24 13:15:34;;;;;;;18.90;6.50;;;4.60;99.90;;;;;;5049836;28;20048;-56
2023/02/24 13:18:00;;;;;;;22.53;6.23;;;4.60;99.90;;;;;;5049843;28;20469;-54
2023/02/24 13:20:35;;;;;;;21.10;5.33;;;4.60;99.90;;;;;;5049846;28;20435;-55
2023/02/24 13:23:03;;;;;;;21.07;6.13;;;4.60;99.90;;;;;;5049663;28;20035;-56
2023/02/24 13:25:37;;;;;;;18.67;6.13;;;4.60;99.90;;;;;;5049743;28;20037;-56
2023/02/24 13:28:20;;;;;;;20.40;6.83;;;4.60;99.90;;;;;;5050158;28;20440;-55
2023/02/24 13:30:46;;;;;;;19.00;5.63;;;4.60;99.90;;;;;;5049760;28;20025;-55
2023/02/24 13:33:17;;;;;;;19.17;5.53;;;4.70;99.90;;;;;;5049572;28;20447;-54
2023/02/24 13:35:46;;;;;;;15.97;5.03;;;4.70;99.90;;;;;;5052752;28;20547;-55
2023/02/24 13:38:44;;;;;;;15.13;5.60;;;4.70;99.90;;;;;;5052912;28;20028;-56
2023/02/24 13:41:22;;;;;;;16.05;6.22;;;4.70;99.90;;;;;;5038039;28;20128;-56
2023/02/24 13:44:17;;;;;;;17.03;5.77;;;4.70;99.90;;;;;;5053125;28;20079;-56
2023/02/24 13:47:15;;;;;;;19.70;5.50;;;4.80;99.90;;;;;;5025332;28;20060;-59
2023/02/24 13:49:59;;;;;;;21.80;5.50;;;4.80;99.90;;;;;;5012362;28;20072;-55
2023/02/24 13:52:35;;;;;;;18.20;5.67;;;4.80;99.90;;;;;;5052946;28;20059;-56
2023/02/24 13:55:38;;;;;;;17.63;6.00;;;4.80;99.90;;;;;;5052866;28;20025;-56
2023/02/24 13:58:22;;;;;;;19.77;5.47;;;4.80;99.90;;;;;;5052814;28;20025;-57
2023/02/24 14:01:02;;;;;;;21.37;6.40;;;4.80;99.90;;;;;;5053080;28;20371;-57